Time;durP1;ratioP1;P1;durP2;ratioP2;P2;SDS_P1;SDS_P2;PMS_P1;PMS_P2;Temp;Humidity;BMP_temperature;BMP_pressure;BME280_temperature;BME280_humidity;BME280_pressure;Samples;Min_cycle;Max_cycle;Signal;HPM_P1;HPM_P2
2023/01/28 00:01:38;;;;;;;15.63;7.47;;;3.20;99.90;;;;;;7409152;19;19919;-74
2023/01/28 00:04:07;;;;;;;16.30;7.75;;;2.60;99.90;;;;;;7410317;19;19922;-74
2023/01/28 00:06:39;;;;;;;23.90;12.05;;;2.30;99.90;;;;;;7406581;19;19997;-75
2023/01/28 00:09:08;;;;;;;20.98;8.32;;;3.40;99.90;;;;;;7408064;19;19946;-75
2023/01/28 00:11:37;;;;;;;16.40;8.00;;;2.80;99.90;;;;;;7404372;19;20369;-75
2023/01/28 00:14:06;;;;;;;13.18;6.25;;;2.80;99.90;;;;;;7406998;19;19929;-75
2023/01/28 00:16:35;;;;;;;10.35;5.30;;;2.80;99.90;;;;;;7403652;19;19915;-75
2023/01/28 00:19:05;;;;;;;9.02;4.88;;;2.70;99.90;;;;;;7405548;19;19921;-75
2023/01/28 00:21:34;;;;;;;15.65;7.22;;;2.70;99.90;;;;;;7410093;19;20367;-75
2023/01/28 00:24:06;;;;;;;7.90;4.35;;;2.70;99.90;;;;;;7407991;19;19910;-75
2023/01/28 00:26:34;;;;;;;6.78;4.30;;;2.70;99.90;;;;;;7405760;19;20256;-75
2023/01/28 00:29:04;;;;;;;7.65;4.50;;;2.80;99.90;;;;;;7406689;19;20446;-75
2023/01/28 00:31:33;;;;;;;11.27;6.05;;;3.10;99.90;;;;;;7409644;19;19966;-74
2023/01/28 00:34:02;;;;;;;10.07;5.20;;;2.70;99.90;;;;;;7405513;19;20302;-74
2023/01/28 00:36:30;;;;;;;3.63;2.83;;;2.70;99.90;;;;;;7404271;19;19914;-75
2023/01/28 00:39:01;;;;;;;3.83;2.85;;;2.60;99.90;;;;;;7408927;19;19999;-75
2023/01/28 00:41:32;;;;;;;3.08;2.60;;;2.80;99.90;;;;;;7409089;19;20477;-75
2023/01/28 00:44:04;;;;;;;7.22;3.63;;;3.10;99.90;;;;;;7406390;19;19915;-74
2023/01/28 00:46:33;;;;;;;7.07;3.58;;;2.40;99.90;;;;;;7407418;19;19925;-75
2023/01/28 00:49:02;;;;;;;19.63;8.23;;;3.00;99.90;;;;;;7405359;19;19943;-75
2023/01/28 00:51:31;;;;;;;17.60;7.30;;;2.60;99.90;;;;;;7408449;19;19923;-75
2023/01/28 00:54:00;;;;;;;7.57;4.07;;;3.40;99.90;;;;;;7405836;19;19941;-75
2023/01/28 00:56:31;;;;;;;5.75;4.28;;;2.70;99.90;;;;;;7403209;19;19922;-75
2023/01/28 00:59:00;;;;;;;6.15;4.28;;;2.70;99.90;;;;;;7406961;19;20272;-75
2023/01/28 01:01:29;;;;;;;7.20;4.10;;;2.20;99.90;;;;;;7406012;19;19978;-75
2023/01/28 01:04:01;;;;;;;3.03;2.72;;;3.50;99.90;;;;;;7404904;19;19926;-75
2023/01/28 01:06:31;;;;;;;3.10;2.42;;;2.80;99.90;;;;;;7405224;19;19922;-75
2023/01/28 01:09:00;;;;;;;2.50;2.30;;;2.80;99.90;;;;;;7405697;19;19922;-74
2023/01/28 01:11:32;;;;;;;4.35;2.70;;;3.60;99.90;;;;;;7404571;19;20225;-75
2023/01/28 01:14:04;;;;;;;7.07;3.15;;;3.30;99.90;;;;;;7405554;19;19930;-75
2023/01/28 01:16:35;;;;;;;4.68;3.50;;;2.50;99.90;;;;;;7405539;19;19914;-75
2023/01/28 01:19:05;;;;;;;4.38;3.05;;;2.70;99.90;;;;;;7405474;19;19937;-75
2023/01/28 01:21:33;;;;;;;4.32;3.00;;;3.30;99.90;;;;;;7404819;19;19935;-75
2023/01/28 01:24:02;;;;;;;3.80;2.70;;;2.90;99.90;;;;;;7404602;19;20355;-75
2023/01/28 01:26:34;;;;;;;2.25;2.05;;;3.10;99.90;;;;;;7406180;19;19922;-75
2023/01/28 01:29:03;;;;;;;5.25;2.70;;;2.40;99.90;;;;;;7407286;19;19925;-75
2023/01/28 01:31:32;;;;;;;4.00;2.70;;;3.60;99.90;;;;;;7404254;19;19914;-75
2023/01/28 01:34:00;;;;;;;5.93;2.97;;;3.20;99.90;;;;;;7405864;19;20342;-75
2023/01/28 01:36:29;;;;;;;4.70;2.50;;;2.80;99.90;;;;;;7403368;19;19915;-75
2023/01/28 01:38:58;;;;;;;2.95;2.30;;;1.80;99.90;;;;;;7405988;19;20311;-75
2023/01/28 01:41:30;;;;;;;3.42;2.30;;;2.70;99.90;;;;;;7403707;19;19918;-75
2023/01/28 01:44:03;;;;;;;5.35;2.85;;;2.10;99.90;;;;;;7404630;19;20356;-75
2023/01/28 01:46:37;;;;;;;3.83;2.70;;;3.40;99.90;;;;;;7404436;19;20285;-75
2023/01/28 01:49:15;;;;;;;2.90;2.60;;;3.20;99.90;;;;;;7403999;19;19918;-75
2023/01/28 01:51:46;;;;;;;3.40;2.50;;;2.70;99.90;;;;;;7403526;19;19919;-75
2023/01/28 01:54:16;;;;;;;3.58;2.15;;;2.60;99.90;;;;;;7405374;19;19925;-75
2023/01/28 01:56:48;;;;;;;4.22;2.65;;;1.90;99.90;;;;;;7402216;19;19914;-75
2023/01/28 01:59:23;;;;;;;6.47;3.22;;;2.30;99.90;;;;;;7404361;19;19928;-75
2023/01/28 02:01:53;;;;;;;4.63;3.22;;;2.40;99.90;;;;;;7405273;19;19930;-75
2023/01/28 02:04:27;;;;;;;3.53;3.00;;;2.10;99.90;;;;;;7405547;19;20277;-75
2023/01/28 02:06:56;;;;;;;2.85;2.33;;;2.60;99.90;;;;;;7403539;19;19930;-75
2023/01/28 02:09:28;;;;;;;4.70;2.70;;;1.80;99.90;;;;;;7404555;19;19934;-75
2023/01/28 02:11:59;;;;;;;3.72;2.83;;;2.40;99.90;;;;;;7403252;19;20501;-76
2023/01/28 02:14:34;;;;;;;3.42;2.50;;;3.10;99.90;;;;;;7404198;19;19930;-75
2023/01/28 02:17:03;;;;;;;3.58;2.30;;;2.90;99.90;;;;;;7403905;19;19917;-75
2023/01/28 02:19:38;;;;;;;2.75;2.05;;;3.10;99.90;;;;;;7402053;19;19918;-74
2023/01/28 02:22:39;;;;;;;3.55;2.30;;;2.40;99.90;;;;;;7402764;19;19911;-75
2023/01/28 02:25:23;;;;;;;;;;;3.20;99.90;;;;;;7406996;19;19933;-74
2023/01/28 02:28:19;;;;;;;2.33;1.80;;;2.90;99.90;;;;;;7401932;19;20340;-75
2023/01/28 02:30:56;;;;;;;4.25;2.45;;;2.10;99.90;;;;;;7402536;19;20274;-75
2023/01/28 02:33:33;;;;;;;2.70;2.50;;;2.30;99.90;;;;;;7405534;19;19951;-75
2023/01/28 02:36:11;;;;;;;5.55;2.20;;;2.40;99.90;;;;;;7401325;19;20520;-75
2023/01/28 02:38:45;;;;;;;3.40;2.10;;;2.40;99.90;;;;;;7402088;19;20353;-75
2023/01/28 02:41:23;;;;;;;3.17;2.35;;;1.60;99.90;;;;;;7404226;19;19928;-75
2023/01/28 02:43:54;;;;;;;4.07;2.10;;;2.50;99.90;;;;;;7405060;19;19918;-75
2023/01/28 02:49:22;;;;;;;3.60;2.10;;;2.60;99.90;;;;;;7404566;19;19974;-75
2023/01/28 02:52:14;;;;;;;2.85;2.40;;;1.40;99.90;;;;;;7404606;19;19930;-75
2023/01/28 02:54:48;;;;;;;2.97;2.28;;;3.20;99.90;;;;;;7406255;19;19937;-75
2023/01/28 02:57:28;;;;;;;3.50;2.15;;;2.60;99.90;;;;;;7400010;19;19914;-75
2023/01/28 03:00:05;;;;;;;3.10;2.53;;;2.50;99.90;;;;;;7404952;19;19922;-75
2023/01/28 03:02:42;;;;;;;2.95;2.17;;;3.20;99.90;;;;;;7402715;19;19950;-75
2023/01/28 03:05:19;;;;;;;2.33;1.90;;;2.80;99.90;;;;;;7402732;19;19925;-74
2023/01/28 03:07:49;;;;;;;4.68;3.00;;;2.90;99.90;;;;;;7406403;19;19935;-75
2023/01/28 03:10:19;;;;;;;6.05;2.70;;;2.70;99.90;;;;;;7401364;19;19925;-75
2023/01/28 03:37:37;;;;;;;3.45;2.65;;;2.10;99.90;;;;;;7399194;19;19925;-75
2023/01/28 03:40:09;;;;;;;3.00;2.42;;;2.40;99.90;;;;;;7401036;19;19914;-75
2023/01/28 03:42:38;;;;;;;3.33;2.50;;;3.10;99.90;;;;;;7400738;19;19918;-75
2023/01/28 03:45:08;;;;;;;4.25;2.60;;;2.70;99.90;;;;;;7400038;19;20273;-75
2023/01/28 03:47:40;;;;;;;3.58;2.67;;;2.30;99.90;;;;;;7403589;19;19930;-75
2023/01/28 03:50:09;;;;;;;;;;;2.20;99.90;;;;;;7412270;19;19918;-75
2023/01/28 03:52:38;;;;;;;3.47;2.67;;;3.00;99.90;;;;;;7407116;19;20287;-75
2023/01/28 03:55:12;;;;;;;4.03;2.58;;;2.20;99.90;;;;;;7406654;19;19910;-75
2023/01/28 03:57:43;;;;;;;3.92;2.70;;;2.20;99.90;;;;;;7407696;19;20337;-75
2023/01/28 04:00:16;;;;;;;3.72;2.65;;;1.80;99.90;;;;;;7406686;19;19918;-75
2023/01/28 04:02:47;;;;;;;3.15;2.47;;;2.80;99.90;;;;;;7406490;19;19918;-75
2023/01/28 04:05:18;;;;;;;6.15;2.85;;;2.40;99.90;;;;;;7408824;19;19974;-75
2023/01/28 04:07:51;;;;;;;4.50;2.80;;;2.60;99.90;;;;;;7406529;19;19929;-75
2023/01/28 04:10:20;;;;;;;5.35;2.58;;;3.20;99.90;;;;;;7407760;19;19915;-76
2023/01/28 04:12:49;;;;;;;3.20;2.40;;;2.60;99.90;;;;;;7403705;19;20357;-74
2023/01/28 04:15:18;;;;;;;5.47;2.85;;;2.80;99.90;;;;;;7409216;19;20347;-75
2023/01/28 04:17:50;;;;;;;3.17;2.60;;;2.20;99.90;;;;;;7405769;19;19929;-75
2023/01/28 04:20:19;;;;;;;;;;;2.40;99.90;;;;;;7408473;19;19923;-75
2023/01/28 04:22:48;;;;;;;;;;;2.20;99.90;;;;;;7409747;19;19918;-75
2023/01/28 04:25:17;;;;;;;3.38;2.47;;;1.80;99.90;;;;;;7409299;19;20279;-75
2023/01/28 04:27:46;;;;;;;5.32;2.10;;;2.20;99.90;;;;;;7407557;19;19915;-75
2023/01/28 04:30:15;;;;;;;3.60;2.70;;;2.80;99.90;;;;;;7410331;19;20382;-75
2023/01/28 04:32:44;;;;;;;5.10;2.67;;;1.70;99.90;;;;;;7405740;19;19915;-75
2023/01/28 04:35:15;;;;;;;4.90;2.72;;;3.00;99.90;;;;;;7406009;19;19922;-75
2023/01/28 04:37:44;;;;;;;3.47;2.50;;;2.00;99.90;;;;;;7403621;19;19929;-75
2023/01/28 04:40:14;;;;;;;3.40;2.42;;;2.10;99.90;;;;;;7405619;19;19911;-74
2023/01/28 04:42:43;;;;;;;3.65;2.72;;;2.20;99.90;;;;;;7408999;19;19914;-75
2023/01/28 04:45:13;;;;;;;7.53;3.00;;;2.70;99.90;;;;;;7405780;19;19985;-75
2023/01/28 04:47:41;;;;;;;3.97;2.67;;;1.90;99.90;;;;;;7410080;19;19914;-75
2023/01/28 04:50:11;;;;;;;5.38;3.65;;;2.30;99.90;;;;;;7405830;19;19925;-75
2023/01/28 04:52:43;;;;;;;6.32;2.70;;;2.60;99.90;;;;;;7407979;19;19914;-75
2023/01/28 04:55:12;;;;;;;4.72;3.08;;;2.20;99.90;;;;;;7405380;19;19918;-75
2023/01/28 04:57:41;;;;;;;4.30;2.30;;;1.30;99.90;;;;;;7406464;19;19949;-75
2023/01/28 05:00:11;;;;;;;4.10;2.80;;;2.70;99.90;;;;;;7405505;19;19917;-75
2023/01/28 05:02:40;;;;;;;8.52;3.42;;;2.10;99.90;;;;;;7405410;19;19910;-75
2023/01/28 05:05:10;;;;;;;6.45;3.20;;;2.10;99.90;;;;;;7407967;19;20336;-75
2023/01/28 05:07:39;;;;;;;4.22;2.88;;;2.10;99.90;;;;;;7405145;19;19922;-75
2023/01/28 05:10:12;;;;;;;6.25;2.85;;;4.00;99.90;;;;;;7404422;19;19925;-75
2023/01/28 05:12:41;;;;;;;3.63;2.83;;;2.90;99.90;;;;;;7406589;19;19918;-75
2023/01/28 05:15:11;;;;;;;3.00;2.40;;;3.00;99.90;;;;;;7404916;19;19915;-75
2023/01/28 05:17:40;;;;;;;3.58;2.92;;;1.20;99.90;;;;;;7403252;19;20293;-75
2023/01/28 05:20:11;;;;;;;5.60;2.50;;;1.80;99.90;;;;;;7408895;19;19918;-75
2023/01/28 05:22:40;;;;;;;3.70;2.28;;;1.50;99.90;;;;;;7408302;19;19922;-75
2023/01/28 05:25:13;;;;;;;4.25;3.03;;;1.60;99.90;;;;;;7404473;19;19921;-75
2023/01/28 05:27:42;;;;;;;4.72;2.25;;;2.30;99.90;;;;;;7406726;19;19970;-75
2023/01/28 05:30:12;;;;;;;4.75;3.00;;;2.40;99.90;;;;;;7404422;19;19987;-75
2023/01/28 05:32:41;;;;;;;4.07;2.85;;;1.30;99.90;;;;;;7407402;19;19918;-75
2023/01/28 05:35:11;;;;;;;5.20;2.65;;;2.00;99.90;;;;;;7408532;19;19923;-75
2023/01/28 05:37:40;;;;;;;3.95;2.72;;;2.40;99.90;;;;;;7403364;19;19914;-75
2023/01/28 05:40:13;;;;;;;5.15;2.80;;;2.30;99.90;;;;;;7404125;19;19922;-75
2023/01/28 05:42:42;;;;;;;4.10;2.47;;;2.40;99.90;;;;;;7406952;19;19914;-75
2023/01/28 05:45:11;;;;;;;4.57;3.00;;;1.50;99.90;;;;;;7407060;19;19929;-75
2023/01/28 05:47:40;;;;;;;4.20;2.97;;;1.90;99.90;;;;;;7404368;19;20246;-75
2023/01/28 05:50:11;;;;;;;4.55;2.65;;;1.90;99.90;;;;;;7403839;19;19922;-75
2023/01/28 05:52:40;;;;;;;4.00;2.58;;;1.60;99.90;;;;;;7405970;19;19918;-75
2023/01/28 05:55:12;;;;;;;4.32;2.95;;;1.60;99.90;;;;;;7405264;19;19923;-75
2023/01/28 05:57:43;;;;;;;4.70;2.78;;;;;;;;;;7406499;19;19929;-74
2023/01/28 06:00:14;;;;;;;5.50;3.03;;;2.40;99.90;;;;;;7403362;19;19915;-75
2023/01/28 06:02:43;;;;;;;4.35;2.92;;;2.00;99.90;;;;;;7405682;19;19918;-75
2023/01/28 06:05:12;;;;;;;5.00;3.00;;;2.10;99.90;;;;;;7405033;19;20303;-75
2023/01/28 06:07:41;;;;;;;4.35;2.60;;;1.40;99.90;;;;;;7403041;19;19917;-75
2023/01/28 06:10:13;;;;;;;3.80;2.35;;;2.10;99.90;;;;;;7402813;19;21183;-75
2023/01/28 06:12:42;;;;;;;4.72;2.60;;;1.90;99.90;;;;;;7404090;19;19934;-75
2023/01/28 06:15:12;;;;;;;5.00;2.97;;;2.40;99.90;;;;;;7403729;19;19929;-75
2023/01/28 06:17:41;;;;;;;5.53;3.03;;;2.10;99.90;;;;;;7405755;19;19933;-75
2023/01/28 06:20:12;;;;;;;3.63;2.65;;;2.90;99.90;;;;;;7402821;19;19933;-75
2023/01/28 06:22:42;;;;;;;4.95;2.80;;;2.10;99.90;;;;;;7405227;19;19926;-75
2023/01/28 06:25:15;;;;;;;7.57;3.00;;;2.10;99.90;;;;;;7402643;19;20344;-75
2023/01/28 06:27:43;;;;;;;4.45;2.60;;;1.50;99.90;;;;;;7405589;19;19919;-75
2023/01/28 06:30:13;;;;;;;5.03;2.85;;;2.60;99.90;;;;;;7402057;19;19910;-75
2023/01/28 06:32:43;;;;;;;11.88;3.05;;;2.00;99.90;;;;;;7406264;19;19914;-75
2023/01/28 06:35:12;;;;;;;5.65;3.20;;;2.10;99.90;;;;;;7405085;19;20260;-75
2023/01/28 06:37:42;;;;;;;5.88;2.72;;;2.70;99.90;;;;;;7401427;19;19911;-76
2023/01/28 06:40:15;;;;;;;4.30;2.78;;;2.00;99.90;;;;;;7402740;19;20163;-76
2023/01/28 06:42:43;;;;;;;4.38;2.53;;;2.50;99.90;;;;;;7404018;19;19922;-77
2023/01/28 06:45:13;;;;;;;5.38;3.17;;;1.90;99.90;;;;;;7404687;19;20261;-75
2023/01/28 06:47:42;;;;;;;5.63;3.40;;;2.40;99.90;;;;;;7402420;19;19918;-75
2023/01/28 06:50:13;;;;;;;5.63;3.20;;;2.60;99.90;;;;;;7405132;19;19922;-75
2023/01/28 06:52:41;;;;;;;6.70;3.80;;;1.30;99.90;;;;;;7404220;19;19932;-75
2023/01/28 06:55:13;;;;;;;6.97;3.80;;;2.70;99.90;;;;;;7403959;19;19918;-75
2023/01/28 06:57:44;;;;;;;5.72;3.35;;;2.60;99.90;;;;;;7400880;19;19922;-75
2023/01/28 07:00:15;;;;;;;6.25;3.85;;;1.20;99.90;;;;;;7401285;19;19918;-75
2023/01/28 07:02:44;;;;;;;6.10;3.45;;;2.10;99.90;;;;;;7401486;19;19918;-75
2023/01/28 07:05:13;;;;;;;6.35;3.15;;;2.60;99.90;;;;;;7404754;19;19922;-75
2023/01/28 07:07:42;;;;;;;4.57;3.10;;;2.30;99.90;;;;;;7401466;19;19940;-75
2023/01/28 07:10:14;;;;;;;6.15;4.03;;;2.10;99.90;;;;;;7402644;19;20575;-75
2023/01/28 07:12:43;;;;;;;4.88;3.50;;;1.90;99.90;;;;;;7401073;19;19925;-75
2023/01/28 07:15:13;;;;;;;5.47;4.05;;;1.60;99.90;;;;;;7403106;19;19922;-75
2023/01/28 07:17:43;;;;;;;10.15;3.60;;;2.50;99.90;;;;;;7399967;19;19918;-75
2023/01/28 07:20:16;;;;;;;5.65;3.10;;;1.40;99.90;;;;;;7404090;19;19914;-75
2023/01/28 07:22:46;;;;;;;8.68;3.95;;;2.30;99.90;;;;;;7407449;19;20411;-75
2023/01/28 07:25:18;;;;;;;5.00;3.60;;;1.30;99.90;;;;;;7408930;19;19910;-75
2023/01/28 07:27:49;;;;;;;5.18;3.55;;;2.10;99.90;;;;;;7406331;19;20305;-76
2023/01/28 07:30:23;;;;;;;6.00;3.45;;;1.20;99.90;;;;;;7407542;19;19907;-75
2023/01/28 07:32:55;;;;;;;4.95;3.75;;;2.20;99.90;;;;;;7408372;19;20247;-75
2023/01/28 07:35:25;;;;;;;5.30;4.10;;;1.70;99.90;;;;;;7408701;19;19942;-75
2023/01/28 07:37:54;;;;;;;6.05;3.90;;;1.40;99.90;;;;;;7410676;19;19922;-75
2023/01/28 07:40:26;;;;;;;6.22;3.83;;;1.70;99.90;;;;;;7410424;19;20349;-75
2023/01/28 07:42:55;;;;;;;9.15;4.72;;;0.90;99.90;;;;;;7409784;19;20229;-75
2023/01/28 07:45:25;;;;;;;7.07;4.55;;;1.10;99.90;;;;;;7410212;19;20267;-75
2023/01/28 07:47:58;;;;;;;9.43;4.55;;;1.70;99.90;;;;;;7410673;19;19934;-75
2023/01/28 07:50:28;;;;;;;5.03;3.65;;;1.10;99.90;;;;;;7406711;19;19915;-75
2023/01/28 07:52:57;;;;;;;5.28;3.72;;;0.80;99.90;;;;;;7407260;19;19930;-75
2023/01/28 07:55:29;;;;;;;5.88;3.75;;;1.70;99.90;;;;;;7408769;19;19919;-75
2023/01/28 07:57:59;;;;;;;5.05;3.60;;;1.70;99.90;;;;;;7405079;19;19919;-75
2023/01/28 08:00:31;;;;;;;8.00;4.25;;;0.70;99.90;;;;;;7406386;19;19926;-75
2023/01/28 08:03:01;;;;;;;6.18;4.28;;;2.10;99.90;;;;;;7410542;19;19926;-75
2023/01/28 08:05:40;;;;;;;5.63;4.10;;;1.70;99.90;;;;;;7409163;19;20345;-75
2023/01/28 08:08:10;;;;;;;7.18;4.05;;;0.70;99.90;;;;;;7405438;19;19918;-75
2023/01/28 08:10:42;;;;;;;5.30;4.00;;;1.60;99.90;;;;;;7411078;19;19918;-75
2023/01/28 08:13:12;;;;;;;;;;;1.60;99.90;;;;;;7408857;19;19928;-75
2023/01/28 08:15:41;;;;;;;6.07;4.20;;;0.80;99.90;;;;;;7410073;19;19922;-75
2023/01/28 08:18:13;;;;;;;6.20;4.53;;;2.00;99.90;;;;;;7408589;19;19919;-75
2023/01/28 08:20:43;;;;;;;5.95;3.97;;;1.30;99.90;;;;;;7405914;19;19927;-75
2023/01/28 08:23:15;;;;;;;6.85;4.57;;;0.90;99.90;;;;;;7406426;19;19926;-75
2023/01/28 08:25:48;;;;;;;6.13;3.97;;;1.10;99.90;;;;;;7408981;19;19925;-75
2023/01/28 08:28:18;;;;;;;7.40;5.35;;;1.50;99.90;;;;;;7409161;19;19929;-75
2023/01/28 08:30:47;;;;;;;7.43;3.65;;;2.00;99.90;;;;;;7406376;19;20471;-75
2023/01/28 08:33:20;;;;;;;6.60;3.83;;;0.80;99.90;;;;;;7406986;19;19919;-75
2023/01/28 08:35:49;;;;;;;5.95;4.18;;;1.90;99.90;;;;;;7409887;19;20249;-75
2023/01/28 08:38:19;;;;;;;6.57;4.43;;;2.20;99.90;;;;;;7403746;19;19926;-76
2023/01/28 08:40:54;;;;;;;5.50;3.97;;;2.20;99.90;;;;;;7390082;19;19925;-79
2023/01/28 08:43:23;;;;;;;6.60;4.10;;;1.90;99.90;;;;;;7398788;19;19922;-74
2023/01/28 08:45:52;;;;;;;6.65;3.92;;;0.90;99.90;;;;;;7405232;19;19922;-76
2023/01/28 08:48:21;;;;;;;6.25;4.10;;;1.10;99.90;;;;;;7407350;19;19988;-73
2023/01/28 08:50:50;;;;;;;7.18;4.03;;;1.10;99.90;;;;;;7405375;19;19933;-75
2023/01/28 08:53:21;;;;;;;7.05;4.35;;;1.10;99.90;;;;;;7407589;19;19918;-73
2023/01/28 08:55:52;;;;;;;6.53;4.50;;;1.80;99.90;;;;;;7406586;19;19923;-76
2023/01/28 08:58:22;;;;;;;6.68;4.22;;;2.20;99.90;;;;;;7405325;19;19925;-74
2023/01/28 09:00:52;;;;;;;8.75;4.22;;;0.80;99.90;;;;;;7406201;19;19919;-75
2023/01/28 09:03:21;;;;;;;5.65;4.15;;;1.50;99.90;;;;;;7406297;19;19936;-75
2023/01/28 09:05:50;;;;;;;5.68;3.92;;;0.80;99.90;;;;;;7402254;19;19918;-73
2023/01/28 09:08:19;;;;;;;5.40;3.85;;;2.20;99.90;;;;;;7405035;19;19932;-73
2023/01/28 09:10:48;;;;;;;6.68;3.97;;;2.40;99.90;;;;;;7406397;19;20260;-73
2023/01/28 09:13:19;;;;;;;4.93;4.00;;;-0.40;99.90;;;;;;7405473;19;20309;-74
2023/01/28 09:15:50;;;;;;;6.60;4.03;;;1.10;99.90;;;;;;7405237;19;19922;-74
2023/01/28 09:18:19;;;;;;;6.13;3.75;;;1.40;99.90;;;;;;7404393;19;19926;-76
2023/01/28 09:20:48;;;;;;;6.10;3.70;;;1.70;99.90;;;;;;7403675;19;20248;-74
2023/01/28 09:23:17;;;;;;;4.65;3.35;;;1.80;99.90;;;;;;7403780;19;19918;-72
2023/01/28 09:25:46;;;;;;;6.88;3.75;;;;;;;;;;7405554;19;19992;-72
2023/01/28 09:28:15;;;;;;;6.45;3.97;;;1.80;99.90;;;;;;7404054;19;20276;-72
2023/01/28 09:30:47;;;;;;;6.25;3.58;;;2.50;99.90;;;;;;7405142;19;19918;-73
2023/01/28 09:33:16;;;;;;;5.93;4.35;;;1.20;99.90;;;;;;7411353;19;19925;-72
2023/01/28 09:35:44;;;;;;;5.90;3.55;;;1.70;99.90;;;;;;7415380;19;19978;-72
2023/01/28 09:38:13;;;;;;;6.40;4.03;;;2.40;99.90;;;;;;7406874;19;19929;-72
2023/01/28 09:40:45;;;;;;;8.23;4.00;;;1.80;99.90;;;;;;7404408;19;20260;-73
2023/01/28 09:43:39;;;;;;;5.25;3.45;;;2.40;99.90;;;;;;7402756;19;19929;-73
2023/01/28 09:46:14;;;;;;;7.78;4.15;;;1.20;99.90;;;;;;7401090;19;19926;-73
2023/01/28 09:48:47;;;;;;;5.75;3.90;;;2.30;99.90;;;;;;7405936;19;19923;-73
2023/01/28 09:51:31;;;;;;;8.02;3.97;;;2.20;99.90;;;;;;7404384;19;20359;-73
2023/01/28 09:54:04;;;;;;;6.43;3.60;;;3.00;99.90;;;;;;7406217;19;20341;-73
2023/01/28 09:56:36;;;;;;;6.53;3.70;;;2.20;99.90;;;;;;7400440;19;19943;-72
2023/01/28 09:59:18;;;;;;;5.55;3.95;;;2.40;99.90;;;;;;7403549;19;20336;-72
2023/01/28 10:01:56;;;;;;;5.88;3.67;;;2.10;99.90;;;;;;7401483;19;20376;-73
2023/01/28 10:04:38;;;;;;;4.72;3.20;;;2.70;99.90;;;;;;7404367;19;19925;-70
2023/01/28 10:07:20;;;;;;;6.40;4.15;;;2.60;99.90;;;;;;7405199;19;19943;-72
2023/01/28 10:09:55;;;;;;;6.10;3.53;;;3.00;99.90;;;;;;7405441;19;19929;-70
2023/01/28 10:12:50;;;;;;;4.60;3.38;;;3.20;99.90;;;;;;7404573;19;20341;-73
2023/01/28 10:15:36;;;;;;;4.70;3.00;;;2.80;99.90;;;;;;7403156;19;19926;-73
2023/01/28 10:18:11;;;;;;;5.70;3.38;;;1.70;99.90;;;;;;7403153;19;19925;-73
2023/01/28 10:20:45;;;;;;;7.13;3.70;;;2.70;99.90;;;;;;7403793;19;19934;-73
2023/01/28 10:23:21;;;;;;;4.55;3.38;;;3.40;99.90;;;;;;7404563;19;20368;-73
2023/01/28 10:25:51;;;;;;;7.00;4.00;;;2.20;99.90;;;;;;7404836;19;20351;-74
2023/01/28 10:28:23;;;;;;;5.85;3.60;;;2.80;99.90;;;;;;7401670;19;20267;-74
2023/01/28 10:30:52;;;;;;;5.15;3.53;;;2.50;99.90;;;;;;7401716;19;19930;-73
2023/01/28 10:33:30;;;;;;;6.35;3.70;;;2.60;99.90;;;;;;7404807;19;19929;-72
2023/01/28 10:35:59;;;;;;;6.20;3.60;;;1.80;99.90;;;;;;7404463;19;20264;-72
2023/01/28 10:38:29;;;;;;;5.35;3.25;;;2.80;99.90;;;;;;7404276;19;19978;-73
2023/01/28 10:41:02;;;;;;;5.88;3.75;;;2.90;99.90;;;;;;7404142;19;19922;-73
2023/01/28 10:43:35;;;;;;;7.75;3.33;;;2.60;99.90;;;;;;7402014;19;19933;-73
2023/01/28 10:46:09;;;;;;;5.15;3.30;;;3.10;99.90;;;;;;7402684;19;19930;-73
2023/01/28 10:48:47;;;;;;;5.13;3.20;;;3.00;99.90;;;;;;7403688;19;20333;-72
2023/01/28 10:51:18;;;;;;;4.68;2.60;;;2.50;99.90;;;;;;7402104;19;19959;-71
2023/01/28 10:53:48;;;;;;;5.18;3.10;;;3.30;99.90;;;;;;7402359;19;19927;-73
2023/01/28 10:56:19;;;;;;;5.30;2.67;;;3.10;99.90;;;;;;7404325;19;19927;-75
2023/01/28 10:58:57;;;;;;;3.00;2.33;;;3.30;99.90;;;;;;7407660;19;19919;-72
2023/01/28 11:01:26;;;;;;;8.70;2.90;;;3.50;99.90;;;;;;7409085;19;19919;-74
2023/01/28 11:04:00;;;;;;;5.95;3.28;;;3.60;99.90;;;;;;7408383;19;19918;-74
2023/01/28 11:06:30;;;;;;;6.18;3.35;;;3.60;99.90;;;;;;7410274;19;19937;-73
2023/01/28 11:08:59;;;;;;;6.00;3.85;;;3.70;99.90;;;;;;7410406;19;19922;-72
2023/01/28 11:11:30;;;;;;;6.57;3.70;;;3.50;99.90;;;;;;7409214;19;19914;-71
2023/01/28 11:14:00;;;;;;;6.45;3.45;;;3.20;99.90;;;;;;7409129;19;19918;-73
2023/01/28 11:16:29;;;;;;;7.13;3.97;;;3.40;99.90;;;;;;7403140;19;19919;-74
2023/01/28 11:19:05;;;;;;;5.93;3.45;;;2.90;99.90;;;;;;7407088;19;19927;-73
2023/01/28 11:21:35;;;;;;;7.25;4.43;;;3.30;99.90;;;;;;7409239;19;20290;-74
2023/01/28 11:24:06;;;;;;;7.20;4.13;;;3.90;99.90;;;;;;7410469;19;19928;-76
2023/01/28 11:26:38;;;;;;;6.35;3.45;;;2.80;99.90;;;;;;7408843;19;19930;-77
2023/01/28 11:29:08;;;;;;;5.95;3.92;;;4.00;99.90;;;;;;7406427;19;19914;-74
2023/01/28 11:31:43;;;;;;;7.65;3.83;;;4.20;99.90;;;;;;7406374;19;19918;-74
2023/01/28 11:34:19;;;;;;;5.05;3.28;;;4.00;99.90;;;;;;7408716;19;20374;-74
2023/01/28 11:36:53;;;;;;;7.43;3.40;;;3.50;99.90;;;;;;7410022;19;20442;-74
2023/01/28 11:39:27;;;;;;;8.27;3.67;;;3.40;99.90;;;;;;7406282;19;19915;-73
2023/01/28 11:41:56;;;;;;;5.20;3.13;;;3.40;99.90;;;;;;7408042;19;19950;-74
2023/01/28 11:44:27;;;;;;;5.38;3.33;;;3.60;99.90;;;;;;7407882;19;19918;-76
2023/01/28 11:47:17;;;;;;;6.40;3.47;;;3.90;99.90;;;;;;7407446;19;19922;-75
2023/01/28 11:50:05;;;;;;;7.20;3.00;;;3.50;99.90;;;;;;7410281;19;19929;-76
2023/01/28 11:52:45;;;;;;;4.25;3.00;;;3.60;99.90;;;;;;7408111;19;19926;-76
2023/01/28 11:55:29;;;;;;;4.53;3.28;;;4.10;99.90;;;;;;7405857;19;20276;-77
2023/01/28 11:58:07;;;;;;;4.97;3.03;;;3.70;99.90;;;;;;7409339;19;19919;-77
2023/01/28 12:00:42;;;;;;;5.60;2.80;;;4.40;99.90;;;;;;7410515;19;19919;-78
2023/01/28 12:03:26;;;;;;;5.60;3.38;;;3.60;99.90;;;;;;7408197;19;19926;-78
2023/01/28 12:06:13;;;;;;;6.60;3.45;;;4.10;99.90;;;;;;7407017;19;19922;-76
2023/01/28 12:08:51;;;;;;;5.75;3.28;;;3.80;99.90;;;;;;7404822;19;20350;-76
2023/01/28 12:14:23;;;;;;;5.10;2.88;;;4.50;99.90;;;;;;7406545;19;19922;-77
2023/01/28 12:17:02;;;;;;;6.57;3.38;;;4.00;99.90;;;;;;7409321;19;19914;-76
2023/01/28 12:19:47;;;;;;;5.72;3.33;;;3.20;99.90;;;;;;7407847;19;20296;-77
2023/01/28 12:22:58;;;;;;;8.18;3.85;;;4.40;99.90;;;;;;7409438;19;19929;-78
2023/01/28 12:25:41;;;;;;;7.68;3.45;;;3.00;99.90;;;;;;7404921;19;19946;-76
2023/01/28 12:28:17;;;;;;;;;;;4.00;99.90;;;;;;7408619;19;19919;-75
2023/01/28 12:31:02;;;;;;;5.13;2.97;;;3.60;99.90;;;;;;7409661;19;19925;-75
2023/01/28 12:33:49;;;;;;;4.15;2.60;;;4.20;99.90;;;;;;7409037;19;19923;-75
2023/01/28 12:36:32;;;;;;;3.47;2.13;;;3.70;99.90;;;;;;7406818;19;20004;-74
2023/01/28 12:39:13;;;;;;;3.33;2.22;;;3.90;99.90;;;;;;7408212;19;19923;-75
2023/01/28 12:41:50;;;;;;;6.25;3.13;;;5.20;99.90;;;;;;7399995;19;20268;-77
2023/01/28 12:44:25;;;;;;;4.22;2.70;;;4.30;99.90;;;;;;7408487;19;19934;-74
2023/01/28 12:46:58;;;;;;;5.53;3.00;;;5.10;99.90;;;;;;7403260;19;20686;-76
2023/01/28 12:49:33;;;;;;;7.07;2.72;;;4.50;99.90;;;;;;7403167;19;20278;-74
2023/01/28 12:52:07;;;;;;;4.22;2.90;;;5.00;99.90;;;;;;7408973;19;19919;-76
2023/01/28 12:54:40;;;;;;;5.82;2.50;;;4.80;99.90;;;;;;7389326;19;19974;-76
2023/01/28 12:57:18;;;;;;;5.18;2.50;;;5.00;99.90;;;;;;7403726;19;20713;-76
2023/01/28 12:59:51;;;;;;;5.88;3.22;;;5.20;99.90;;;;;;7404844;19;19918;-75
2023/01/28 13:02:27;;;;;;;4.97;2.88;;;5.90;99.90;;;;;;7407691;19;19915;-76
2023/01/28 13:05:03;;;;;;;4.90;3.53;;;5.20;99.90;;;;;;7407301;19;19922;-75
2023/01/28 13:07:38;;;;;;;5.63;2.83;;;6.20;99.90;;;;;;7404600;19;19941;-76
2023/01/28 13:10:17;;;;;;;4.47;2.70;;;5.70;99.90;;;;;;7397509;19;19922;-76
2023/01/28 13:12:50;;;;;;;5.50;2.85;;;5.60;99.90;;;;;;7406317;19;20388;-76
2023/01/28 13:15:21;;;;;;;6.75;2.78;;;5.50;99.90;;;;;;7402905;19;20380;-76
2023/01/28 13:17:58;;;;;;;5.13;3.53;;;5.70;99.90;;;;;;7407943;19;19922;-76
2023/01/28 13:20:37;;;;;;;5.38;3.63;;;5.50;99.90;;;;;;7403952;19;19933;-75
2023/01/28 13:23:25;;;;;;;5.57;2.97;;;5.30;99.90;;;;;;7402729;19;19951;-75
2023/01/28 13:25:55;;;;;;;5.03;2.90;;;5.30;99.90;;;;;;7404384;19;20336;-76
2023/01/28 13:28:33;;;;;;;6.88;3.50;;;5.00;99.90;;;;;;7404222;19;19914;-75
2023/01/28 13:31:07;;;;;;;7.47;3.35;;;4.90;99.90;;;;;;7408625;19;19929;-75
2023/01/28 13:33:37;;;;;;;3.72;2.83;;;4.80;99.90;;;;;;7404855;19;19930;-77
2023/01/28 13:36:22;;;;;;;4.13;2.78;;;5.70;99.90;;;;;;7404209;19;19919;-77
2023/01/28 13:39:02;;;;;;;4.60;3.00;;;4.70;99.90;;;;;;7407374;19;19934;-76
2023/01/28 13:41:42;;;;;;;4.80;3.05;;;4.60;99.90;;;;;;7404007;19;19922;-75
2023/01/28 13:44:31;;;;;;;5.82;3.55;;;4.60;99.90;;;;;;7404085;19;19922;-76
2023/01/28 13:47:14;;;;;;;4.25;2.50;;;5.50;99.90;;;;;;7404221;19;19951;-76
2023/01/28 13:49:45;;;;;;;6.07;3.33;;;4.70;99.90;;;;;;7402143;19;19918;-76
2023/01/28 13:52:19;;;;;;;6.80;2.75;;;5.30;99.90;;;;;;7406067;19;19926;-76
2023/01/28 13:54:53;;;;;;;6.00;3.10;;;5.00;99.90;;;;;;7403742;19;19915;-75
2023/01/28 13:57:49;;;;;;;5.85;3.20;;;4.50;99.90;;;;;;7403672;19;20274;-76